Time;durP1;ratioP1;P1;durP2;ratioP2;P2;SDS_P1;SDS_P2;PMS_P1;PMS_P2;Temp;Humidity;BMP_temperature;BMP_pressure;BME280_temperature;BME280_humidity;BME280_pressure;Samples;Min_cycle;Max_cycle;Signal;HPM_P1;HPM_P2
2022/12/15 00:38:54;;;;;;;;;61.50;49.00;;;;;1.53;56.45;100315.56;4979953;28;45255;-75
2022/12/15 00:41:19;;;;;;;;;63.75;53.00;;;;;1.50;56.96;100311.16;4977371;28;45343;-75
2022/12/15 00:43:45;;;;;;;;;57.00;47.00;;;;;1.48;56.64;100311.97;4990411;28;45255;-75
2022/12/15 00:48:55;;;;;;;;;58.00;47.75;;;;;1.42;56.95;100319.59;4979764;28;45175;-74
2022/12/15 00:51:21;;;;;;;;;62.25;50.25;;;;;1.45;57.13;100327.44;4961884;28;45242;-75
2022/12/15 01:21:12;;;;;;;;;63.75;51.25;;;;;0.91;57.92;100306.94;4993249;28;45273;-75
2022/12/15 01:23:40;;;;;;;;;48.25;43.25;;;;;0.85;58.17;100303.34;4984631;28;45269;-74
2022/12/15 01:26:06;;;;;;;;;60.25;47.75;;;;;0.90;58.21;100315.56;4982485;28;45303;-74
2022/12/15 01:28:31;;;;;;;;;59.00;46.25;;;;;0.91;58.16;100326.00;5010367;28;47371;-74
2022/12/15 01:30:57;;;;;;;;;55.25;48.25;;;;;0.79;57.82;100307.47;4992414;28;45474;-74
2022/12/15 01:33:22;;;;;;;;;67.50;49.00;;;;;0.85;58.19;100318.88;4981167;28;45393;-75
2022/12/15 01:35:59;;;;;;;;;63.00;50.25;;;;;0.80;58.51;100324.78;4976199;28;45535;-75
2022/12/15 01:38:27;;;;;;;;;64.50;49.50;;;;;0.81;58.57;100330.00;4995410;28;46439;-75
2022/12/15 01:41:03;;;;;;;;;63.50;49.50;;;;;0.81;58.16;100336.91;4980918;28;45989;-74
2022/12/15 01:43:31;;;;;;;;;68.75;54.75;;;;;0.80;58.18;100335.13;4984223;28;45440;-74
2022/12/15 01:46:02;;;;;;;;;66.75;55.00;;;;;0.76;58.30;100344.53;4980840;28;45937;-75
2022/12/15 01:48:50;;;;;;;;;59.75;48.25;;;;;0.73;58.72;100339.28;4984167;28;48302;-74
2022/12/15 01:51:23;;;;;;;;;67.25;54.00;;;;;0.67;58.63;100333.94;4997511;28;46347;-74
2022/12/15 01:54:11;;;;;;;;;62.50;49.50;;;;;0.68;58.35;100334.81;4972967;28;45300;-75
2022/12/15 01:56:42;;;;;;;;;61.50;50.00;;;;;0.65;58.41;100348.53;4964335;28;45473;-75
2022/12/15 01:59:12;;;;;;;;;66.75;52.75;;;;;0.63;58.69;100356.25;4982089;28;45249;-74
2022/12/15 02:01:37;;;;;;;;;66.75;50.50;;;;;0.59;58.57;100344.06;4981879;28;45432;-75
2022/12/15 02:04:02;;;;;;;;;67.50;52.25;;;;;0.62;58.90;100346.72;4981962;28;45372;-75
2022/12/15 02:06:29;;;;;;;;;64.00;51.50;;;;;0.55;59.12;100336.13;4991083;28;45656;-75
2022/12/15 02:08:57;;;;;;;;;60.50;49.50;;;;;0.54;58.90;100352.53;4998451;28;45613;-75
2022/12/15 02:11:31;;;;;;;;;67.25;53.25;;;;;0.55;58.93;100351.69;4963410;28;45315;-74
2022/12/15 02:14:04;;;;;;;;;65.00;50.00;;;;;0.51;59.11;100347.22;4981432;28;45281;-74
2022/12/15 02:16:29;;;;;;;;;67.00;51.00;;;;;0.50;59.19;100348.94;4983750;28;45513;-74
2022/12/15 02:19:14;;;;;;;;;61.00;46.25;;;;;0.48;59.13;100335.06;4983392;28;47257;-75
2022/12/15 02:22:01;;;;;;;;;58.50;49.75;;;;;0.33;59.35;100311.31;4999674;28;45519;-75
2022/12/15 02:24:57;;;;;;;;;57.50;49.25;;;;;0.41;59.49;100346.09;4974863;28;45480;-75
2022/12/15 02:27:42;;;;;;;;;59.50;47.50;;;;;0.40;59.61;100345.22;4989777;28;45736;-75
2022/12/15 02:30:34;;;;;;;;;64.75;48.50;;;;;0.38;59.23;100351.19;4983728;28;45881;-74
2022/12/15 02:33:13;;;;;;;;;59.00;47.00;;;;;0.35;59.87;100344.19;5000692;28;45453;-74
2022/12/15 02:36:06;;;;;;;;;59.75;48.75;;;;;0.35;59.31;100341.59;4990255;28;45211;-75
2022/12/15 02:38:35;;;;;;;;;64.25;47.75;;;;;0.31;59.67;100324.19;4994393;28;45479;-75
2022/12/15 02:41:03;;;;;;;;;67.00;54.00;;;;;0.29;59.80;100331.03;4963483;28;48440;-74
2022/12/15 02:43:32;;;;;;;;;64.50;51.75;;;;;0.26;59.65;100340.44;4981576;28;45273;-75
2022/12/15 02:46:11;;;;;;;;;57.25;48.50;;;;;0.16;59.55;100349.59;4980053;28;45265;-75
2022/12/15 02:48:54;;;;;;;;;52.25;46.25;;;;;0.18;59.63;100366.94;4981490;28;45277;-75
2022/12/15 02:51:35;;;;;;;;;68.75;55.25;;;;;0.22;60.06;100368.81;4979440;28;47211;-75
2022/12/15 02:54:19;;;;;;;;;67.75;51.75;;;;;0.19;60.08;100358.34;4974733;28;45342;-75
2022/12/15 02:57:10;;;;;;;;;65.50;51.25;;;;;0.12;60.36;100332.22;4980019;28;45484;-74
2022/12/15 02:59:38;;;;;;;;;68.00;49.75;;;;;0.16;60.00;100349.59;4976865;28;45203;-75
2022/12/15 03:02:07;;;;;;;;;67.00;55.25;;;;;0.08;59.85;100338.13;4976849;28;48272;-75
2022/12/15 03:04:33;;;;;;;;;66.75;52.75;;;;;0.12;60.07;100348.63;4975532;28;45673;-74
2022/12/15 03:07:08;;;;;;;;;66.00;53.25;;;;;0.11;60.73;100348.59;4963343;28;45272;-75
2022/12/15 03:09:33;;;;;;;;;64.00;50.75;;;;;0.09;60.58;100345.94;4979672;28;45473;-75
2022/12/15 03:11:59;;;;;;;;;67.25;50.75;;;;;-0.02;60.59;100326.63;4979291;28;47217;-74
2022/12/15 03:14:24;;;;;;;;;67.50;53.25;;;;;0.06;60.45;100345.00;4979695;28;46118;-75
2022/12/15 03:16:50;;;;;;;;;63.50;51.00;;;;;0.01;60.58;100349.13;4981051;28;45660;-75
2022/12/15 03:19:16;;;;;;;;;66.25;54.50;;;;;0.04;60.98;100357.00;4980869;28;45230;-75
2022/12/15 03:21:42;;;;;;;;;64.25;48.50;;;;;0.02;60.59;100349.16;4978004;28;47215;-75
2022/12/15 03:24:07;;;;;;;;;70.00;55.75;;;;;0.04;60.60;100355.28;4979509;28;45377;-74
2022/12/15 03:26:33;;;;;;;;;72.00;54.50;;;;;-0.01;61.22;100352.53;4981153;28;45478;-75
2022/12/15 03:28:59;;;;;;;;;77.25;59.00;;;;;0.02;61.32;100354.34;5011747;28;45692;-75
2022/12/15 03:31:24;;;;;;;;;71.75;54.50;;;;;-0.08;60.72;100350.59;4986654;28;45455;-74
2022/12/15 03:33:50;;;;;;;;;60.50;47.50;;;;;-0.01;60.95;100349.06;4980794;28;45409;-75
2022/12/15 03:36:15;;;;;;;;;64.25;50.50;;;;;-0.09;61.37;100335.88;4980582;28;45432;-74
2022/12/15 03:38:40;;;;;;;;;74.50;56.75;;;;;-0.15;61.10;100324.47;4980671;28;45509;-75
2022/12/15 03:41:06;;;;;;;;;66.25;52.50;;;;;-0.06;61.18;100341.16;4980231;28;46198;-74
2022/12/15 03:43:31;;;;;;;;;64.50;50.00;;;;;-0.16;61.14;100318.41;4979342;28;46034;-75
2022/12/15 03:45:57;;;;;;;;;67.25;55.00;;;;;-0.09;60.90;100322.94;4992971;28;45378;-75
2022/12/15 03:48:23;;;;;;;;;72.50;58.75;;;;;-0.05;61.18;100332.56;4993164;28;45153;-75
2022/12/15 03:50:49;;;;;;;;;71.75;55.75;;;;;-0.07;61.63;100328.19;4973797;28;48451;-75
2022/12/15 03:53:14;;;;;;;;;68.00;54.00;;;;;-0.06;61.23;100338.56;4992527;28;45238;-75
2022/12/15 03:55:40;;;;;;;;;66.50;53.00;;;;;-0.07;61.61;100333.34;4980355;28;45236;-74
2022/12/15 03:58:05;;;;;;;;;67.75;54.75;;;;;-0.06;61.50;100345.44;4980494;28;45509;-74
2022/12/15 04:00:31;;;;;;;;;67.00;53.75;;;;;-0.09;61.75;100337.59;4979122;28;46912;-75
2022/12/15 04:02:57;;;;;;;;;65.00;51.00;;;;;0.07;61.20;100341.56;4980849;28;45454;-74
2022/12/15 04:05:26;;;;;;;;;70.00;55.75;;;;;0.11;61.71;100359.81;4978782;28;45504;-75
2022/12/15 04:07:55;;;;;;;;;69.50;56.00;;;;;0.03;60.62;100355.22;4962720;28;45445;-75
2022/12/15 04:10:21;;;;;;;;;63.75;53.00;;;;;0.12;61.34;100358.13;4979995;28;46020;-74
2022/12/15 04:12:47;;;;;;;;;58.00;48.75;;;;;0.07;61.42;100346.72;4979944;28;45505;-74
2022/12/15 04:15:13;;;;;;;;;72.25;55.00;;;;;0.09;61.06;100350.25;4994537;28;45383;-75
2022/12/15 04:17:38;;;;;;;;;48.00;45.75;;;;;0.12;61.02;100342.59;4990778;28;45559;-74
2022/12/15 04:20:08;;;;;;;;;61.75;50.25;;;;;0.17;61.31;100341.03;4979431;28;45365;-74
2022/12/15 04:22:42;;;;;;;;;68.50;53.25;;;;;0.14;61.82;100330.59;4962681;28;46167;-74
2022/12/15 05:33:54;;;;;;;;;74.50;55.75;;;;;0.17;61.19;100331.53;4990576;28;45193;-74
2022/12/15 05:36:20;;;;;;;;;55.00;42.50;;;;;0.16;60.37;100332.38;5001183;28;46442;-75
2022/12/15 05:38:50;;;;;;;;;67.00;53.25;;;;;0.18;61.04;100340.19;4993845;28;45223;-74
2022/12/15 05:41:17;;;;;;;;;61.25;51.00;;;;;0.17;60.72;100335.84;4982004;28;45344;-74
2022/12/15 05:43:42;;;;;;;;;72.25;52.00;;;;;0.20;60.57;100342.00;4982462;28;45373;-74
2022/12/15 05:46:07;;;;;;;;;65.00;53.75;;;;;0.14;61.19;100339.22;4978596;28;48231;-74
2022/12/15 05:48:33;;;;;;;;;58.25;47.00;;;;;0.11;60.63;100338.25;4992827;28;45180;-75
2022/12/15 05:51:03;;;;;;;;;63.50;51.25;;;;;-0.03;61.13;100324.84;4964254;28;45415;-75
2022/12/15 05:53:29;;;;;;;;;60.75;50.00;;;;;0.11;61.33;100351.19;4982219;28;45394;-74
2022/12/15 05:56:00;;;;;;;;;53.25;46.50;;;;;0.07;60.87;100355.38;4980720;28;47960;-75
2022/12/15 05:58:26;;;;;;;;;59.75;49.25;;;;;0.09;60.40;100353.72;4980684;28;46051;-75
2022/12/15 06:00:51;;;;;;;;;64.75;52.50;;;;;0.08;60.86;100354.56;4978826;28;45287;-75
2022/12/15 06:03:17;;;;;;;;;65.00;52.50;;;;;0.07;61.23;100347.59;4993092;28;45408;-74
2022/12/15 06:05:42;;;;;;;;;68.75;55.25;;;;;0.06;60.96;100337.22;4983754;28;45489;-74
2022/12/15 06:08:08;;;;;;;;;63.75;46.00;;;;;-0.02;61.20;100327.50;4981816;28;45472;-74
2022/12/15 06:10:33;;;;;;;;;64.50;54.00;;;;;-0.02;60.68;100327.50;4997643;28;45314;-75
2022/12/15 06:12:58;;;;;;;;;66.25;53.00;;;;;0.07;61.27;100341.56;4972893;28;45973;-75
2022/12/15 06:15:24;;;;;;;;;62.00;50.25;;;;;-0.02;60.94;100347.31;4981382;28;46086;-74
2022/12/15 06:17:49;;;;;;;;;67.50;51.75;;;;;-0.02;60.79;100358.53;4964169;28;45892;-75
2022/12/15 06:20:15;;;;;;;;;71.50;54.75;;;;;-0.05;61.24;100355.88;4980950;28;45342;-75
2022/12/15 06:22:40;;;;;;;;;60.75;46.25;;;;;-0.04;60.95;100356.72;4981553;28;45460;-75
2022/12/15 06:25:06;;;;;;;;;63.75;51.25;;;;;-0.11;60.71;100355.63;4979618;28;48023;-76
2022/12/15 06:27:35;;;;;;;;;60.00;51.50;;;;;-0.14;60.94;100358.13;4997276;28;45388;-77
2022/12/15 06:30:00;;;;;;;;;66.50;50.25;;;;;-0.23;61.28;100350.94;5002749;28;45472;-77
2022/12/15 06:32:26;;;;;;;;;65.25;50.50;;;;;-0.26;60.72;100348.28;4981814;28;45388;-77
2022/12/15 06:34:51;;;;;;;;;65.00;51.25;;;;;-0.24;61.03;100356.09;4968085;28;46504;-77
2022/12/15 06:37:16;;;;;;;;;66.00;54.50;;;;;-0.09;61.51;100376.41;4981681;28;45185;-77
2022/12/15 06:39:42;;;;;;;;;69.75;53.50;;;;;-0.28;60.97;100349.91;4984098;28;45235;-76
2022/12/15 06:42:07;;;;;;;;;66.50;52.75;;;;;-0.19;60.88;100364.84;5000641;28;45458;-75
2022/12/15 06:44:33;;;;;;;;;61.00;48.50;;;;;-0.14;61.14;100389.16;4984961;28;46714;-75
2022/12/15 06:46:58;;;;;;;;;75.75;56.25;;;;;-0.21;60.86;100376.88;4981115;28;45286;-75
2022/12/15 06:49:23;;;;;;;;;70.00;54.75;;;;;-0.23;61.22;100373.34;4980994;28;45424;-76
2022/12/15 06:51:49;;;;;;;;;67.25;53.25;;;;;-0.15;61.49;100407.25;4992656;28;45374;-74
2022/12/15 06:54:14;;;;;;;;;66.75;52.50;;;;;-0.22;61.37;100390.63;4984651;28;45373;-75
2022/12/15 06:56:40;;;;;;;;;67.25;53.25;;;;;-0.24;61.71;100394.88;4963337;28;45466;-77
2022/12/15 06:59:07;;;;;;;;;75.50;59.00;;;;;-0.31;61.55;100377.41;4966204;28;45388;-75
2022/12/15 07:01:33;;;;;;;;;73.00;56.25;;;;;-0.35;61.12;100370.34;4980866;28;45419;-76
2022/12/15 07:04:00;;;;;;;;;71.00;57.75;;;;;-0.33;61.87;100384.22;4981877;28;47010;-75
2022/12/15 07:06:25;;;;;;;;;65.75;51.75;;;;;-0.30;61.51;100390.34;4990119;28;45328;-75
2022/12/15 07:08:58;;;;;;;;;69.50;53.25;;;;;-0.36;61.79;100385.00;4994102;28;45218;-75
2022/12/15 07:11:23;;;;;;;;;78.50;57.75;;;;;-0.41;61.10;100370.16;4963231;28;45599;-75
2022/12/15 07:13:50;;;;;;;;;62.25;48.75;;;;;-0.29;61.45;100396.44;4981041;28;45309;-75
2022/12/15 07:16:15;;;;;;;;;66.25;52.50;;;;;-0.39;61.63;100381.44;4991228;28;45652;-75
2022/12/15 07:18:40;;;;;;;;;69.75;56.50;;;;;-0.37;61.64;100382.38;4987074;28;45270;-75
2022/12/15 07:21:07;;;;;;;;;70.75;54.75;;;;;-0.31;62.05;100403.25;4999980;28;45460;-75
2022/12/15 07:23:33;;;;;;;;;71.75;54.75;;;;;-0.32;61.30;100420.47;4978306;28;47317;-75
2022/12/15 07:26:07;;;;;;;;;74.00;58.50;;;;;-0.37;62.10;100416.84;4991784;28;45376;-75
2022/12/15 07:28:34;;;;;;;;;71.50;55.75;;;;;-0.30;62.48;100421.41;5011416;28;45567;-75
2022/12/15 07:31:01;;;;;;;;;73.25;57.00;;;;;-0.45;61.85;100406.25;4972304;28;45484;-75
2022/12/15 07:33:27;;;;;;;;;76.75;58.00;;;;;-0.42;61.81;100409.78;4962781;28;47046;-74
2022/12/15 07:35:53;;;;;;;;;69.25;56.00;;;;;-0.42;61.72;100395.13;4967130;28;45787;-75
2022/12/15 07:38:19;;;;;;;;;68.50;51.00;;;;;-0.37;61.74;100400.47;4980140;28;45351;-75
2022/12/15 07:40:45;;;;;;;;;58.75;48.75;;;;;-0.30;62.35;100398.13;4980412;28;45371;-75
2022/12/15 07:43:10;;;;;;;;;66.50;54.00;;;;;-0.24;61.83;100407.81;4980517;28;45314;-76
2022/12/15 07:45:35;;;;;;;;;69.75;54.00;;;;;-0.23;62.26;100405.28;4980503;28;45253;-74
2022/12/15 07:48:01;;;;;;;;;76.50;58.75;;;;;-0.23;62.26;100402.69;4980179;28;45366;-75
2022/12/15 07:50:27;;;;;;;;;68.00;51.25;;;;;-0.13;61.74;100410.78;4978695;28;45429;-74
2022/12/15 07:52:53;;;;;;;;;71.25;54.25;;;;;-0.03;62.22;100412.81;4984830;28;46580;-74
2022/12/15 07:55:19;;;;;;;;;72.50;56.25;;;;;-0.02;61.63;100417.19;4988313;28;45356;-74
2022/12/15 07:57:46;;;;;;;;;70.50;54.00;;;;;0.10;61.82;100433.09;4962567;28;45448;-74
2022/12/15 08:00:13;;;;;;;;;72.00;56.25;;;;;0.07;61.36;100427.81;4991948;28;45417;-74
2022/12/15 08:02:40;;;;;;;;;71.75;55.00;;;;;0.10;62.06;100424.47;4981772;28;47361;-74
2022/12/15 08:05:06;;;;;;;;;67.00;56.75;;;;;0.25;62.02;100440.50;4969706;28;45330;-74
2022/12/15 08:07:32;;;;;;;;;71.50;55.75;;;;;0.22;61.61;100428.34;4993120;28;45342;-74
2022/12/15 08:09:57;;;;;;;;;70.75;57.00;;;;;0.37;60.89;100443.47;4983331;28;45481;-74
2022/12/15 08:12:22;;;;;;;;;70.25;54.50;;;;;0.36;61.05;100444.31;4983117;28;46626;-74
2022/12/15 08:14:48;;;;;;;;;69.75;56.00;;;;;0.43;61.27;100446.28;4974737;28;45367;-74
2022/12/15 08:17:13;;;;;;;;;68.25;53.00;;;;;0.45;61.12;100443.72;4996661;28;45412;-76
2022/12/15 08:19:39;;;;;;;;;66.50;49.75;;;;;0.66;61.13;100464.25;4983114;28;45573;-74
2022/12/15 08:22:04;;;;;;;;;72.00;58.50;;;;;0.71;60.86;100472.19;4981816;28;46128;-75
2022/12/15 08:24:29;;;;;;;;;74.75;57.25;;;;;0.75;60.94;100474.03;4981896;28;45375;-74
2022/12/15 08:26:55;;;;;;;;;64.00;50.25;;;;;0.77;60.60;100481.00;4986473;28;45455;-75
2022/12/15 08:29:20;;;;;;;;;64.50;52.00;;;;;0.74;60.47;100472.28;5012413;28;45408;-74
2022/12/15 08:31:46;;;;;;;;;71.75;54.75;;;;;0.80;61.10;100485.41;4985942;28;46154;-74
2022/12/15 08:34:11;;;;;;;;;63.00;50.50;;;;;0.87;60.60;100495.16;4981729;28;45462;-75
2022/12/15 08:36:36;;;;;;;;;64.50;52.75;;;;;0.89;60.61;100490.91;4996084;28;45534;-74
2022/12/15 08:39:02;;;;;;;;;63.00;51.50;;;;;0.93;59.96;100489.28;4981743;28;45481;-74
2022/12/15 08:41:30;;;;;;;;;65.25;54.00;;;;;0.95;60.06;100480.72;4982581;28;45398;-74
2022/12/15 08:43:57;;;;;;;;;56.50;44.25;;;;;0.95;59.88;100474.66;4983284;28;45242;-74
2022/12/15 08:46:33;;;;;;;;;63.50;52.00;;;;;0.90;59.89;100447.72;4983272;28;45358;-74
2022/12/15 08:48:59;;;;;;;;;67.25;51.50;;;;;1.03;59.87;100462.81;4982888;28;45374;-74
2022/12/15 08:51:27;;;;;;;;;70.00;54.75;;;;;0.98;59.82;100454.88;4982499;28;46742;-74
2022/12/15 08:53:54;;;;;;;;;65.75;53.25;;;;;0.99;59.79;100459.25;4982691;28;45470;-75
2022/12/15 08:56:21;;;;;;;;;71.50;55.50;;;;;1.09;59.48;100475.94;4982468;28;45357;-75
2022/12/15 08:58:48;;;;;;;;;66.25;52.50;;;;;1.12;59.78;100480.34;4982028;28;45219;-75
2022/12/15 09:01:17;;;;;;;;;69.25;55.75;;;;;1.08;59.35;100475.06;4982076;28;45483;-74
2022/12/15 09:03:43;;;;;;;;;67.75;53.50;;;;;1.07;59.65;100462.09;4982348;28;45206;-75
2022/12/15 09:06:15;;;;;;;;;68.75;52.50;;;;;1.11;59.57;100466.50;4982602;28;45259;-75
2022/12/15 09:08:41;;;;;;;;;67.75;49.00;;;;;1.22;60.10;100478.06;4982368;28;45523;-75
2022/12/15 09:11:07;;;;;;;;;63.75;52.75;;;;;1.23;59.23;100468.56;4982264;28;46096;-75
2022/12/15 09:13:33;;;;;;;;;70.75;53.75;;;;;1.29;59.47;100477.41;4995647;28;45269;-75
2022/12/15 09:16:12;;;;;;;;;69.25;53.00;;;;;1.36;59.27;100487.97;4969735;28;45393;-75
2022/12/15 09:18:40;;;;;;;;;67.75;53.75;;;;;1.36;59.29;100475.00;4997362;28;45606;-75
2022/12/15 09:21:06;;;;;;;;;71.75;57.00;;;;;1.44;58.85;100479.56;5000126;28;46302;-75
2022/12/15 09:23:33;;;;;;;;;66.75;53.50;;;;;1.54;59.17;100493.69;4968160;28;45518;-75
2022/12/15 09:26:00;;;;;;;;;69.25;54.50;;;;;1.59;59.38;100494.69;4990888;28;45279;-75
2022/12/15 09:28:26;;;;;;;;;71.75;58.25;;;;;1.67;59.28;100487.13;5014204;28;45348;-75
2022/12/15 09:30:52;;;;;;;;;71.25;55.00;;;;;1.66;59.12;100478.47;4992521;28;45330;-75
2022/12/15 09:33:17;;;;;;;;;71.75;56.25;;;;;1.77;58.78;100487.44;4981118;28;45199;-75
2022/12/15 09:35:49;;;;;;;;;67.75;55.00;;;;;1.88;58.72;100485.13;4982201;28;45286;-75
2022/12/15 09:38:14;;;;;;;;;71.25;57.00;;;;;1.90;58.46;100474.81;4999110;28;45162;-75
2022/12/15 09:40:40;;;;;;;;;69.25;54.25;;;;;2.05;58.00;100485.56;5001835;28;45425;-76
2022/12/15 09:43:09;;;;;;;;;67.50;51.25;;;;;2.14;57.69;100490.16;5001799;28;45303;-76
2022/12/15 09:45:42;;;;;;;;;69.25;54.25;;;;;2.16;58.39;100478.06;5002244;28;45360;-76
2022/12/15 09:48:20;;;;;;;;;70.50;54.25;;;;;2.36;57.93;100500.25;5001948;28;45262;-76
2022/12/15 09:50:49;;;;;;;;;65.25;54.00;;;;;2.49;57.76;100511.84;4999822;28;47332;-76
2022/12/15 09:53:17;;;;;;;;;68.50;54.50;;;;;2.47;57.72;100489.25;4983067;28;45821;-76
2022/12/15 09:55:51;;;;;;;;;67.25;52.50;;;;;2.64;57.27;100494.00;5000132;28;45424;-76
2022/12/15 09:58:28;;;;;;;;;66.75;52.00;;;;;2.84;56.98;100501.41;4983648;28;45336;-76
2022/12/15 10:01:06;;;;;;;;;67.75;54.00;;;;;2.84;57.11;100489.28;4979720;28;46237;-76
2022/12/15 10:03:45;;;;;;;;;62.00;50.25;;;;;2.96;56.78;100500.81;4994203;28;45464;-76
2022/12/15 10:06:17;;;;;;;;;62.00;52.50;;;;;3.13;56.51;100509.88;5001364;28;45296;-75
2022/12/15 10:08:54;;;;;;;;;71.50;55.00;;;;;3.19;56.49;100498.75;5001167;28;45334;-76
2022/12/15 10:11:34;;;;;;;;;67.25;54.75;;;;;3.29;56.05;100487.69;4983054;28;48363;-76
2022/12/15 10:14:25;;;;;;;;;63.50;50.75;;;;;3.48;55.61;100504.56;5001052;28;45569;-76
2022/12/15 10:17:15;;;;;;;;;66.00;51.50;;;;;3.54;55.60;100502.09;5001140;28;45446;-76
2022/12/15 10:20:01;;;;;;;;;68.75;52.50;;;;;3.48;55.21;100488.97;5000786;28;45324;-76
2022/12/15 10:22:36;;;;;;;;;65.00;51.75;;;;;3.64;55.08;100514.44;5001018;28;45383;-75
2022/12/15 10:25:17;;;;;;;;;64.50;51.50;;;;;3.70;54.96;100501.56;5000764;28;45406;-76
2022/12/15 10:27:52;;;;;;;;;59.00;49.50;;;;;3.61;53.93;100479.66;5008482;28;45424;-76
2022/12/15 10:30:18;;;;;;;;;68.50;52.25;;;;;3.72;54.83;100479.03;4997928;28;45299;-76
2022/12/15 10:33:12;;;;;;;;;62.50;51.00;;;;;3.73;54.21;100457.34;4980845;28;45249;-76
2022/12/15 10:35:42;;;;;;;;;65.25;50.75;;;;;3.89;54.18;100481.97;4973531;28;45487;-76
2022/12/15 10:38:22;;;;;;;;;63.50;50.25;;;;;3.95;54.50;100470.78;4994456;28;45258;-76
2022/12/15 10:40:52;;;;;;;;;66.75;54.00;;;;;4.01;53.80;100457.00;4980808;28;45461;-76
2022/12/15 10:43:31;;;;;;;;;68.25;52.75;;;;;4.16;53.73;100457.28;4962811;28;47232;-76
2022/12/15 10:46:11;;;;;;;;;64.25;50.75;;;;;4.31;53.65;100467.97;4981235;28;45259;-76
2022/12/15 10:48:36;;;;;;;;;64.50;51.25;;;;;4.31;52.96;100441.03;4999883;28;45472;-76
2022/12/15 10:51:37;;;;;;;;;61.50;48.25;;;;;4.61;53.19;100464.09;4983211;28;45426;-76
2022/12/15 10:54:08;;;;;;;;;66.75;55.00;;;;;4.80;53.00;100442.66;4929812;28;46687;-76
2022/12/15 10:56:55;;;;;;;;;63.50;50.00;;;;;4.77;52.11;100437.41;4979750;28;45363;-78
2022/12/15 10:59:32;;;;;;;;;49.75;41.75;;;;;4.83;52.07;100447.94;4993566;28;45175;-77
2022/12/15 11:02:16;;;;;;;;;65.50;52.75;;;;;4.86;51.74;100434.97;4980729;28;45528;-77
2022/12/15 11:05:05;;;;;;;;;58.75;48.00;;;;;4.86;51.89;100415.78;4984202;28;47949;-75
2022/12/15 11:07:37;;;;;;;;;63.25;51.50;;;;;5.05;51.71;100435.19;4963791;28;45451;-77
2022/12/15 11:10:12;;;;;;;;;62.00;50.00;;;;;5.30;51.82;100425.97;4979519;28;45421;-77
2022/12/15 11:12:53;;;;;;;;;56.00;47.25;;;;;5.66;51.58;100411.56;4980483;28;45443;-76
2022/12/15 11:15:21;;;;;;;;;61.50;47.25;;;;;6.60;51.24;100429.00;4980288;28;46208;-74
2022/12/15 11:18:03;;;;;;;;;64.00;48.00;;;;;6.99;50.07;100415.31;4980454;28;45307;-77
2022/12/15 11:20:34;;;;;;;;;61.50;50.75;;;;;7.09;48.91;100402.28;4963005;28;45199;-77
2022/12/15 11:23:12;;;;;;;;;62.50;49.25;;;;;7.05;48.68;100396.16;4972365;28;45576;-77
2022/12/15 11:25:44;;;;;;;;;59.25;46.25;;;;;7.06;48.39;100409.25;4979919;28;46443;-77
2022/12/15 11:28:19;;;;;;;;;59.50;48.75;;;;;6.99;47.87;100401.34;5005680;28;45425;-75
2022/12/15 11:30:52;;;;;;;;;61.00;49.25;;;;;6.94;47.72;100403.06;4991719;28;45306;-77
2022/12/15 11:33:18;;;;;;;;;62.00;47.50;;;;;6.99;47.55;100389.13;4980158;28;45376;-74
2022/12/15 11:36:08;;;;;;;;;65.75;49.25;;;;;6.89;47.32;100373.38;4979630;28;46236;-74
2022/12/15 11:38:46;;;;;;;;;60.25;48.50;;;;;6.56;47.20;100347.03;4999399;28;45210;-77
2022/12/15 11:41:49;;;;;;;;;57.00;47.50;;;;;6.42;47.06;100353.06;4999340;28;45251;-76
2022/12/15 11:44:26;;;;;;;;;58.00;46.25;;;;;6.26;46.83;100344.25;4997572;28;45620;-76
2022/12/15 11:47:06;;;;;;;;;61.75;48.00;;;;;6.04;46.75;100337.94;4981660;28;46463;-77
2022/12/15 11:50:00;;;;;;;;;57.00;46.50;;;;;6.02;47.18;100352.75;4999277;28;45471;-76
2022/12/15 11:53:03;;;;;;;;;58.50;47.00;;;;;6.06;47.26;100355.38;4964380;28;45516;-77
2022/12/15 11:55:50;;;;;;;;;57.25;47.00;;;;;6.44;47.43;100353.94;4979695;28;45525;-78
2022/12/15 11:58:45;;;;;;;;;67.00;51.00;;;;;7.38;47.59;100326.47;4988249;28;45408;-76
2022/12/15 12:01:34;;;;;;;;;60.00;49.00;;;;;8.24;46.46;100331.78;4981681;28;45397;-76
2022/12/15 12:04:08;;;;;;;;;60.25;48.75;;;;;8.92;45.78;100322.03;4996930;28;45457;-76
2022/12/15 12:06:41;;;;;;;;;59.00;48.75;;;;;9.57;44.66;100327.81;4969367;28;45267;-76
2022/12/15 12:09:16;;;;;;;;;58.75;46.75;;;;;9.72;43.94;100320.69;4980164;28;46351;-78
2022/12/15 12:11:50;;;;;;;;;54.25;45.50;;;;;9.58;42.65;100316.44;4968528;28;45475;-77
2022/12/15 12:14:30;;;;;;;;;60.00;44.50;;;;;9.59;42.42;100329.56;4999676;28;45316;-76
2022/12/15 12:17:21;;;;;;;;;56.25;45.25;;;;;9.63;42.28;100320.78;4983385;28;45463;-76
2022/12/15 12:19:58;;;;;;;;;55.50;44.00;;;;;9.61;41.74;100306.78;4954536;28;47054;-76
2022/12/15 12:22:30;;;;;;;;;53.25;43.75;;;;;9.73;41.37;100297.94;4987567;28;45274;-78
2022/12/15 12:24:58;;;;;;;;;55.00;44.25;;;;;9.82;41.26;100292.59;4999364;28;45473;-79
2022/12/15 12:27:30;;;;;;;;;55.25;44.00;;;;;9.96;41.20;100292.47;5002626;28;45376;-77
2022/12/15 12:30:05;;;;;;;;;50.25;41.50;;;;;10.06;40.76;100283.63;5002590;28;45699;-76
2022/12/15 12:32:48;;;;;;;;;55.00;44.25;;;;;10.16;40.58;100290.56;4962220;28;45440;-77
2022/12/15 12:35:36;;;;;;;;;51.00;41.75;;;;;10.22;40.29;100294.03;4979644;28;45493;-76
2022/12/15 12:38:04;;;;;;;;;58.50;45.25;;;;;9.98;39.71;100282.81;4978033;28;45422;-77
2022/12/15 12:40:35;;;;;;;;;56.00;45.00;;;;;9.79;39.67;100282.13;4968339;28;47323;-77
2022/12/15 12:43:02;;;;;;;;;49.00;41.00;;;;;9.66;39.72;100268.19;4981210;28;46011;-77
2022/12/15 12:45:36;;;;;;;;;50.00;42.00;;;;;9.74;39.82;100281.28;4988241;28;45339;-77
2022/12/15 12:48:36;;;;;;;;;53.25;41.25;;;;;9.67;39.61;100269.91;4979314;28;45437;-77
2022/12/15 12:51:23;;;;;;;;;49.75;40.50;;;;;9.55;39.75;100272.66;4976693;28;46966;-76
2022/12/15 12:53:49;;;;;;;;;50.25;42.00;;;;;9.58;39.38;100261.25;4994805;28;45383;-76
2022/12/15 12:56:40;;;;;;;;;52.25;42.25;;;;;9.54;39.21;100254.25;5002182;28;45430;-76
2022/12/15 12:59:37;;;;;;;;;52.00;42.25;;;;;9.60;39.37;100264.75;4974516;28;45499;-76
2022/12/15 13:02:23;;;;;;;;;48.00;41.25;;;;;9.56;39.00;100260.38;4945352;28;47212;-77
2022/12/15 13:04:59;;;;;;;;;51.25;41.25;;;;;9.60;39.51;100270.88;4970929;28;45435;-77
2022/12/15 13:07:55;;;;;;;;;50.75;39.75;;;;;9.68;39.30;100270.81;4995436;28;45407;-78
2022/12/15 13:10:23;;;;;;;;;44.25;37.50;;;;;9.72;38.54;100276.00;4949246;28;46191;-77
2022/12/15 13:12:48;;;;;;;;;52.75;41.50;;;;;9.87;38.90;100268.91;4975135;28;47313;-75
2022/12/15 13:15:28;;;;;;;;;51.75;39.25;;;;;10.31;39.01;100254.47;4981788;28;45281;-76
2022/12/15 13:18:12;;;;;;;;;46.00;38.00;;;;;11.38;38.90;100254.88;4982633;28;45448;-75
2022/12/15 13:20:39;;;;;;;;;46.75;39.50;;;;;12.72;37.68;100243.75;4987715;28;45315;-75
2022/12/15 13:23:20;;;;;;;;;50.75;40.25;;;;;13.90;36.56;100266.66;5000868;28;46497;-75
2022/12/15 13:25:52;;;;;;;;;48.00;40.25;;;;;14.66;35.54;100274.34;4981934;28;45580;-75
2022/12/15 13:28:29;;;;;;;;;51.75;41.50;;;;;15.38;35.29;100260.75;4993202;28;45387;-76
2022/12/15 13:31:16;;;;;;;;;53.50;40.00;;;;;16.06;34.04;100256.78;5001989;28;45179;-76
2022/12/15 13:33:47;;;;;;;;;45.25;37.75;;;;;16.42;33.19;100254.63;4995579;28;45551;-76
2022/12/15 13:36:39;;;;;;;;;46.50;40.00;;;;;16.69;32.58;100247.44;4981844;28;45465;-77
2022/12/15 13:39:13;;;;;;;;;45.50;38.00;;;;;16.90;32.06;100248.47;4951590;28;45497;-77
2022/12/15 13:41:38;;;;;;;;;39.75;34.50;;;;;16.87;32.00;100234.44;4980906;28;45493;-77
2022/12/15 13:44:25;;;;;;;;;44.25;37.50;;;;;16.43;31.40;100234.25;4982022;28;45372;-77
2022/12/15 13:46:53;;;;;;;;;42.25;37.00;;;;;16.08;31.26;100223.94;4990281;28;45338;-77
2022/12/15 13:49:41;;;;;;;;;45.25;38.00;;;;;16.03;31.00;100223.22;4983844;28;45318;-77
2022/12/15 13:52:13;;;;;;;;;39.00;34.75;;;;;15.83;30.04;100231.03;4983888;28;45267;-77